This is the latest recevied weather packets stored in our database for station/object W2GLD-13. If no packets are shown the sender has not sent any weather packets the latest 10 day(s).
| Time | Temp. | Humidity | Pressure | Rain* | Wind** | Luminosity | Snow |
|---|---|---|---|---|---|---|---|
| 1777837506 | 16.67° C | 39% | 1009.2 hPa | 0 mm | - | - | - |
| 1777836606 | 16.67° C | 39% | 1009.2 hPa | 0 mm | - | - | - |
| 1777835706 | 16.67° C | 39% | 1009.2 hPa | 0 mm | - | - | - |
| 1777834806 | 16.11° C | 39% | 1010 hPa | 0 mm | - | - | - |
| 1777833905 | 16.11° C | 39% | 1010 hPa | 0 mm | - | - | - |
| 1777833006 | 16.11° C | 39% | 1010 hPa | 0 mm | - | - | - |
| 1777832105 | 16.11° C | 39% | 1010 hPa | 0 mm | - | - | - |
| 1777831205 | 13.89° C | 45% | 1011 hPa | 0 mm | - | - | - |
| 1777830305 | 13.89° C | 45% | 1011 hPa | 0 mm | - | - | - |
| 1777829405 | 13.89° C | 45% | 1011 hPa | 0 mm | - | - | - |
| 1777828506 | 13.89° C | 45% | 1011 hPa | 0 mm | - | - | - |
| 1777827606 | 11.67° C | 47% | 1011.8 hPa | 0 mm | - | - | - |
| 1777826706 | 11.67° C | 47% | 1011.8 hPa | 0 mm | - | - | - |
| 1777825806 | 11.67° C | 47% | 1011.8 hPa | 0 mm | - | - | - |
| 1777824905 | 11.67° C | 47% | 1011.8 hPa | 0 mm | - | - | - |
| 1777824005 | 12.22° C | 48% | 1012.3 hPa | 0 mm | - | - | - |
| 1777823105 | 12.22° C | 48% | 1012.3 hPa | 0 mm | - | - | - |
| 1777822205 | 12.22° C | 48% | 1012.3 hPa | 0 mm | - | - | - |
| 1777821305 | 12.22° C | 48% | 1012.3 hPa | 0 mm | - | - | - |
| 1777820406 | 10.56° C | 46% | 1012.3 hPa | 0 mm | - | - | - |
| 1777819506 | 10.56° C | 46% | 1012.3 hPa | 0 mm | - | - | - |
| 1777818606 | 10.56° C | 46% | 1012.3 hPa | 0 mm | - | - | - |
| 1777817706 | 10.56° C | 46% | 1012.3 hPa | 0 mm | - | - | - |
| 1777816806 | 7.78° C | 53% | 1012.6 hPa | 0 mm | - | - | - |
| 1777815906 | 7.78° C | 53% | 1012.6 hPa | 0 mm | - | - | - |
* Rain latest hour (hover to see other rain measurements)
** Current wind speed in m/s (hover to see current wind gust speed)